Time;durP1;ratioP1;P1;durP2;ratioP2;P2;SDS_P1;SDS_P2;PMS_P1;PMS_P2;Temp;Humidity;BMP_temperature;BMP_pressure;BME280_temperature;BME280_humidity;BME280_pressure;Samples;Min_cycle;Max_cycle;Signal;HPM_P1;HPM_P2
2023/06/15 00:00:25;;;;;;;2.25;0.70;;;14.80;99.90;;;;;;5066021;28;20694;-86
2023/06/15 00:02:57;;;;;;;2.15;0.57;;;14.90;99.90;;;;;;5069274;28;20651;-86
2023/06/15 00:05:29;;;;;;;2.22;0.80;;;14.90;99.90;;;;;;5056046;28;20238;-87
2023/06/15 00:08:00;;;;;;;1.73;0.80;;;15.00;99.90;;;;;;5054612;28;20188;-87
2023/06/15 00:10:31;;;;;;;3.05;0.90;;;15.00;99.90;;;;;;5069692;28;20250;-87
2023/06/15 00:13:02;;;;;;;2.63;0.70;;;15.10;99.90;;;;;;5072444;28;20273;-86
2023/06/15 00:15:33;;;;;;;2.65;0.80;;;15.10;99.90;;;;;;5074764;28;20694;-87
2023/06/15 00:18:05;;;;;;;2.80;0.60;;;15.10;99.90;;;;;;5075114;28;20253;-87
2023/06/15 00:20:38;;;;;;;5.57;0.65;;;15.20;99.90;;;;;;5072738;28;20212;-87
2023/06/15 00:23:11;;;;;;;3.42;0.77;;;15.30;99.90;;;;;;5070617;28;20192;-86
2023/06/15 00:25:42;;;;;;;2.25;0.77;;;15.30;99.90;;;;;;5057771;28;20610;-86
2023/06/15 00:28:13;;;;;;;2.20;0.55;;;15.40;99.90;;;;;;5053728;28;20197;-86
2023/06/15 00:30:44;;;;;;;3.42;0.75;;;15.50;99.90;;;;;;5054391;28;20217;-87
2023/06/15 00:33:15;;;;;;;1.80;0.70;;;15.60;99.90;;;;;;5060094;28;20251;-87
2023/06/15 00:35:48;;;;;;;1.67;0.55;;;15.70;99.90;;;;;;5074072;28;20228;-86
2023/06/15 00:38:18;;;;;;;2.45;0.70;;;15.80;99.90;;;;;;5064404;28;20595;-86
2023/06/15 00:40:50;;;;;;;1.98;0.52;;;15.80;99.90;;;;;;5056309;28;20613;-86
2023/06/15 00:43:22;;;;;;;1.42;0.40;;;15.80;99.90;;;;;;5054418;28;20254;-86
2023/06/15 00:45:53;;;;;;;1.27;0.40;;;15.90;99.90;;;;;;5054130;28;20200;-86
2023/06/15 00:48:24;;;;;;;1.50;0.50;;;16.10;99.90;;;;;;5072597;28;20202;-88
2023/06/15 00:50:58;;;;;;;1.33;0.52;;;16.20;99.90;;;;;;5058360;28;20550;-88
2023/06/15 00:53:30;;;;;;;3.72;0.60;;;16.30;99.90;;;;;;5060196;28;20247;-86
2023/06/15 00:56:05;;;;;;;1.55;0.50;;;16.40;99.90;;;;;;5054461;28;20250;-86
2023/06/15 00:58:37;;;;;;;1.00;0.45;;;16.40;99.90;;;;;;5063627;28;20195;-87
2023/06/15 01:01:08;;;;;;;2.28;0.45;;;16.30;99.90;;;;;;5074047;28;20249;-86
2023/06/15 01:03:40;;;;;;;2.10;0.63;;;16.20;99.90;;;;;;5069212;28;20643;-86
2023/06/15 01:06:15;;;;;;;3.95;0.80;;;16.20;99.90;;;;;;5055063;28;20206;-87
2023/06/15 01:08:52;;;;;;;3.55;0.63;;;16.20;99.90;;;;;;5068263;28;20588;-87
2023/06/15 01:11:25;;;;;;;1.02;0.40;;;16.30;99.90;;;;;;5072024;28;20658;-86
2023/06/15 01:13:57;;;;;;;1.50;0.50;;;16.40;99.90;;;;;;5057978;28;20200;-86
2023/06/15 01:16:30;;;;;;;1.40;0.60;;;16.50;99.30;;;;;;5064961;28;20224;-87
2023/06/15 01:19:02;;;;;;;1.35;0.47;;;16.40;99.90;;;;;;5070370;28;20196;-87
2023/06/15 01:21:35;;;;;;;3.60;0.60;;;16.40;99.90;;;;;;5053829;28;20207;-87
2023/06/15 01:24:20;;;;;;;4.90;0.70;;;16.40;98.40;;;;;;5071756;28;20196;-87
2023/06/15 01:26:53;;;;;;;2.75;0.60;;;16.50;99.40;;;;;;5055739;28;20205;-86
2023/06/15 01:29:26;;;;;;;3.20;0.90;;;16.40;98.70;;;;;;5062005;28;20696;-87
2023/06/15 01:31:57;;;;;;;2.25;0.70;;;16.50;99.50;;;;;;5053627;28;20199;-86
2023/06/15 01:34:29;;;;;;;2.33;0.93;;;16.70;98.10;;;;;;5058473;28;20200;-84
2023/06/15 01:36:59;;;;;;;1.77;0.73;;;16.70;99.20;;;;;;5072933;28;20229;-85
2023/06/15 01:39:31;;;;;;;2.90;1.00;;;16.90;99.20;;;;;;5072860;28;20192;-85
2023/06/15 01:42:04;;;;;;;2.17;0.60;;;17.00;98.20;;;;;;5058812;28;20530;-86
2023/06/15 01:44:35;;;;;;;1.77;0.80;;;17.00;98.00;;;;;;5070926;28;20276;-84
2023/06/15 01:47:07;;;;;;;2.40;0.70;;;17.10;99.00;;;;;;5071324;28;20187;-85
2023/06/15 01:49:38;;;;;;;4.25;1.27;;;17.10;97.40;;;;;;5063543;28;20643;-86
2023/06/15 01:52:09;;;;;;;4.15;1.50;;;17.20;96.80;;;;;;5052882;28;20266;-85
2023/06/15 01:54:41;;;;;;;3.03;1.27;;;17.30;97.00;;;;;;5056296;28;20633;-85
2023/06/15 01:57:14;;;;;;;2.17;0.90;;;17.20;96.80;;;;;;5053767;28;20200;-85
2023/06/15 01:59:45;;;;;;;2.72;0.77;;;17.00;96.50;;;;;;5056928;28;20245;-85
2023/06/15 02:02:15;;;;;;;1.80;0.80;;;16.90;96.60;;;;;;5073094;28;20216;-85
2023/06/15 02:04:47;;;;;;;2.75;1.10;;;16.90;97.70;;;;;;5072840;28;20200;-85
2023/06/15 02:07:17;;;;;;;4.78;1.42;;;17.00;97.00;;;;;;5072541;28;20670;-85
2023/06/15 02:09:48;;;;;;;2.10;0.95;;;17.00;96.90;;;;;;5073026;28;20264;-85
2023/06/15 02:12:20;;;;;;;1.85;0.80;;;17.00;97.00;;;;;;5080092;28;20204;-85
2023/06/15 02:14:51;;;;;;;3.05;1.30;;;17.00;96.90;;;;;;5083393;28;20273;-85
2023/06/15 02:17:24;;;;;;;2.00;0.77;;;17.00;97.00;;;;;;5082078;28;20196;-86
2023/06/15 02:19:55;;;;;;;3.00;1.00;;;17.00;97.50;;;;;;5073808;28;20247;-86
2023/06/15 02:22:25;;;;;;;2.25;0.80;;;17.00;97.40;;;;;;5073545;28;20200;-84
2023/06/15 02:24:56;;;;;;;2.50;0.85;;;17.20;97.80;;;;;;5065625;28;20263;-85
2023/06/15 02:27:28;;;;;;;2.60;0.88;;;17.40;96.50;;;;;;5053236;28;20687;-86
2023/06/15 02:29:59;;;;;;;3.30;1.77;;;17.40;96.50;;;;;;5059612;28;20227;-85
2023/06/15 02:32:37;;;;;;;2.58;0.85;;;17.50;96.50;;;;;;5072523;28;20196;-85
2023/06/15 02:35:17;;;;;;;2.58;0.60;;;17.60;96.30;;;;;;5071036;28;20216;-84
2023/06/15 02:37:50;;;;;;;2.88;0.85;;;17.60;95.50;;;;;;5073354;28;20192;-85
2023/06/15 02:40:21;;;;;;;2.55;1.20;;;17.70;95.90;;;;;;5072237;28;20196;-84
2023/06/15 02:42:53;;;;;;;1.67;0.60;;;17.60;95.00;;;;;;5070582;28;20204;-85
2023/06/15 02:45:24;;;;;;;2.50;1.02;;;17.60;95.80;;;;;;5063898;28;20609;-85
2023/06/15 02:47:55;;;;;;;2.92;0.90;;;17.70;95.30;;;;;;5070739;28;20192;-85
2023/06/15 02:50:25;;;;;;;2.80;0.90;;;17.80;96.00;;;;;;5072389;28;20712;-85
2023/06/15 02:52:56;;;;;;;1.58;0.80;;;17.80;95.20;;;;;;5070470;28;20253;-85
2023/06/15 02:55:28;;;;;;;3.90;1.10;;;17.70;94.60;;;;;;5072026;28;20222;-86
2023/06/15 02:58:03;;;;;;;2.97;0.82;;;17.50;95.20;;;;;;5071930;28;20242;-86
2023/06/15 03:00:36;;;;;;;1.00;0.60;;;17.60;95.80;;;;;;5072131;28;20245;-85
2023/06/15 03:03:07;;;;;;;2.97;0.63;;;17.60;95.10;;;;;;5066862;28;20696;-85
2023/06/15 03:05:39;;;;;;;4.22;0.90;;;17.70;95.20;;;;;;5060100;28;20239;-84
2023/06/15 03:08:12;;;;;;;3.08;0.73;;;17.70;94.60;;;;;;5052155;28;20197;-86
2023/06/15 03:10:44;;;;;;;2.53;0.88;;;17.70;95.80;;;;;;5051600;28;20651;-86
2023/06/15 03:13:17;;;;;;;4.53;1.38;;;17.90;95.50;;;;;;5051931;28;20261;-87
2023/06/15 03:15:49;;;;;;;2.72;0.63;;;18.00;94.90;;;;;;5051675;28;20273;-86
2023/06/15 03:18:21;;;;;;;2.15;0.70;;;18.20;94.90;;;;;;5061469;28;20196;-86
2023/06/15 03:20:53;;;;;;;1.88;0.50;;;18.30;94.40;;;;;;5068299;28;20196;-86
2023/06/15 03:23:25;;;;;;;1.52;0.57;;;18.30;94.30;;;;;;5067497;28;20188;-85
2023/06/15 03:25:56;;;;;;;1.80;0.60;;;18.30;94.10;;;;;;5069790;28;20188;-85
2023/06/15 03:28:29;;;;;;;3.17;0.73;;;18.30;93.30;;;;;;5071455;28;20596;-86
2023/06/15 03:31:04;;;;;;;3.05;0.60;;;18.30;92.70;;;;;;5032058;28;20253;-85
2023/06/15 03:33:36;;;;;;;1.50;0.70;;;18.40;92.70;;;;;;5021857;28;20400;-84
2023/06/15 03:36:08;;;;;;;2.58;0.60;;;18.30;92.80;;;;;;5012716;28;20597;-85
2023/06/15 03:38:39;;;;;;;1.75;0.68;;;18.30;93.00;;;;;;5031720;28;20221;-85
2023/06/15 03:41:10;;;;;;;1.15;0.60;;;18.30;92.70;;;;;;5026669;28;20224;-85
2023/06/15 03:43:43;;;;;;;3.92;0.40;;;18.30;92.60;;;;;;5015466;28;20209;-85
2023/06/15 03:46:13;;;;;;;1.92;0.50;;;18.40;92.10;;;;;;5014996;28;20213;-84
2023/06/15 03:48:44;;;;;;;3.08;0.52;;;18.40;92.40;;;;;;5053617;28;20197;-85
2023/06/15 03:51:15;;;;;;;2.03;0.73;;;18.50;92.00;;;;;;5056070;28;20220;-85
2023/06/15 03:53:46;;;;;;;2.13;0.80;;;18.50;90.70;;;;;;5056268;28;20355;-86
2023/06/15 03:56:19;;;;;;;1.60;0.73;;;18.50;90.60;;;;;;5047172;28;20224;-86
2023/06/15 03:58:53;;;;;;;3.85;0.98;;;18.40;90.10;;;;;;5025994;28;20324;-86
2023/06/15 04:01:25;;;;;;;3.05;0.60;;;18.30;90.10;;;;;;5016502;28;20236;-86
2023/06/15 04:03:56;;;;;;;3.47;0.50;;;18.30;89.70;;;;;;5026532;28;20185;-86
2023/06/15 04:06:26;;;;;;;1.70;0.60;;;18.40;89.00;;;;;;5035901;28;20283;-88
2023/06/15 04:08:57;;;;;;;2.72;0.60;;;18.40;89.70;;;;;;5019924;28;20205;-85
2023/06/15 04:11:27;;;;;;;2.25;1.00;;;18.40;89.50;;;;;;5015668;28;20193;-85
2023/06/15 04:14:01;;;;;;;1.25;0.60;;;18.50;90.10;;;;;;5024966;28;20723;-85
2023/06/15 04:16:33;;;;;;;1.55;0.50;;;18.60;88.80;;;;;;5027839;28;20244;-86
2023/06/15 04:19:04;;;;;;;0.77;0.60;;;18.50;87.70;;;;;;5030480;28;20633;-85
2023/06/15 04:21:34;;;;;;;2.22;1.00;;;18.50;88.90;;;;;;5034213;28;20252;-86
2023/06/15 04:24:06;;;;;;;0.47;0.38;;;18.50;88.20;;;;;;5033468;28;20205;-84
2023/06/15 04:26:38;;;;;;;1.15;0.50;;;18.40;88.10;;;;;;5034909;28;20247;-83
2023/06/15 04:29:11;;;;;;;2.42;0.40;;;18.50;87.50;;;;;;5043127;28;20315;-84
2023/06/15 04:31:42;;;;;;;2.13;0.82;;;18.60;86.60;;;;;;5074319;28;20203;-84
2023/06/15 04:34:12;;;;;;;3.83;0.63;;;18.60;87.30;;;;;;5073957;28;20612;-85
2023/06/15 04:36:44;;;;;;;1.50;0.65;;;18.60;86.40;;;;;;5074386;28;20641;-84
2023/06/15 04:39:19;;;;;;;1.25;0.50;;;18.50;85.70;;;;;;5056831;28;20292;-84
2023/06/15 04:41:49;;;;;;;2.22;0.45;;;18.50;86.70;;;;;;5058892;28;20291;-85
2023/06/15 04:44:24;;;;;;;0.98;0.50;;;18.40;87.30;;;;;;5073129;28;20204;-84
2023/06/15 04:46:55;;;;;;;2.42;0.55;;;18.50;87.20;;;;;;5074291;28;20678;-84
2023/06/15 04:49:25;;;;;;;2.05;0.70;;;18.50;86.80;;;;;;5074751;28;20604;-84
2023/06/15 04:51:56;;;;;;;1.15;0.50;;;18.50;87.30;;;;;;5073244;28;20224;-84
2023/06/15 04:54:27;;;;;;;2.05;0.60;;;18.50;86.20;;;;;;5072712;28;20554;-84
2023/06/15 04:56:59;;;;;;;0.95;0.47;;;18.50;86.10;;;;;;5073355;28;20631;-85
2023/06/15 04:59:31;;;;;;;0.70;0.40;;;18.50;85.80;;;;;;5060669;28;20203;-84
2023/06/15 05:02:02;;;;;;;1.77;0.55;;;18.60;85.90;;;;;;5068937;28;20261;-84
2023/06/15 05:04:34;;;;;;;2.90;0.63;;;18.50;86.30;;;;;;5072424;28;20279;-83
2023/06/15 05:07:05;;;;;;;1.45;0.60;;;18.50;86.40;;;;;;5063987;28;20251;-84
2023/06/15 05:09:35;;;;;;;1.27;0.60;;;18.60;86.60;;;;;;5061833;28;20203;-84
2023/06/15 05:12:06;;;;;;;0.80;0.40;;;18.60;87.30;;;;;;5073937;28;20681;-84
2023/06/15 05:14:39;;;;;;;1.10;0.50;;;18.70;87.50;;;;;;5059405;28;20192;-84
2023/06/15 05:17:10;;;;;;;1.02;0.60;;;18.70;85.80;;;;;;5073586;28;20609;-84
2023/06/15 05:19:40;;;;;;;0.63;0.45;;;18.60;85.20;;;;;;5074463;28;20647;-83
2023/06/15 05:22:11;;;;;;;1.42;0.40;;;18.60;85.50;;;;;;5073925;28;20306;-84
2023/06/15 05:24:42;;;;;;;0.85;0.45;;;18.60;85.70;;;;;;5072650;28;20257;-84
2023/06/15 05:27:14;;;;;;;1.92;0.50;;;18.60;86.00;;;;;;5071913;28;20594;-84
2023/06/15 05:29:48;;;;;;;1.17;0.52;;;18.60;85.90;;;;;;5072862;28;20285;-84
2023/06/15 05:32:19;;;;;;;1.92;0.50;;;18.60;86.70;;;;;;5073268;28;20206;-84
2023/06/15 05:34:50;;;;;;;3.22;0.43;;;18.60;86.50;;;;;;5065936;28;20648;-84
2023/06/15 05:37:20;;;;;;;0.65;0.40;;;18.50;86.70;;;;;;5053096;28;20224;-85
2023/06/15 05:39:52;;;;;;;0.93;0.40;;;18.50;87.30;;;;;;5058831;28;20273;-85
2023/06/15 05:42:22;;;;;;;1.50;0.70;;;18.50;87.00;;;;;;5072299;28;20196;-83
2023/06/15 05:44:56;;;;;;;1.30;0.50;;;18.60;87.20;;;;;;5073402;28;20200;-84
2023/06/15 05:47:27;;;;;;;1.40;0.73;;;18.60;86.50;;;;;;5072937;28;20196;-84
2023/06/15 05:49:57;;;;;;;1.60;0.60;;;18.60;87.20;;;;;;5081096;28;20620;-84
2023/06/15 05:52:28;;;;;;;2.90;0.70;;;18.60;87.60;;;;;;5072892;28;20188;-84
2023/06/15 05:55:00;;;;;;;1.23;0.50;;;18.70;87.40;;;;;;5078805;28;20185;-85
2023/06/15 05:57:33;;;;;;;1.40;0.50;;;18.60;87.80;;;;;;5077969;28;20223;-84
2023/06/15 06:00:06;;;;;;;2.17;0.40;;;18.60;88.70;;;;;;5071400;28;20195;-85
2023/06/15 06:02:36;;;;;;;1.08;0.55;;;18.60;88.10;;;;;;5057178;28;20204;-84
2023/06/15 06:05:07;;;;;;;3.00;0.80;;;18.70;87.70;;;;;;5056932;28;20200;-84
2023/06/15 06:07:39;;;;;;;1.85;0.90;;;18.60;87.90;;;;;;5067955;28;20704;-84
2023/06/15 06:10:11;;;;;;;1.55;0.80;;;18.70;87.30;;;;;;5056589;28;20208;-83
2023/06/15 06:12:41;;;;;;;1.95;0.60;;;18.60;87.20;;;;;;5052304;28;20200;-84
2023/06/15 06:15:15;;;;;;;1.60;0.73;;;18.60;88.70;;;;;;5053324;28;20605;-85
2023/06/15 06:17:46;;;;;;;2.03;0.80;;;18.50;89.10;;;;;;5052766;28;20274;-84
2023/06/15 06:20:17;;;;;;;3.35;0.60;;;18.40;89.90;;;;;;5067096;28;20196;-85
2023/06/15 06:22:48;;;;;;;1.30;0.50;;;18.20;89.10;;;;;;5061387;28;20230;-85
2023/06/15 06:25:19;;;;;;;1.02;0.50;;;18.30;90.20;;;;;;5072919;28;20252;-85
2023/06/15 06:27:49;;;;;;;1.48;0.60;;;18.30;89.80;;;;;;5072112;28;20195;-85
2023/06/15 06:30:22;;;;;;;1.10;0.55;;;18.40;89.50;;;;;;5059016;28;20236;-85
2023/06/15 06:32:52;;;;;;;1.30;0.60;;;18.20;90.20;;;;;;5072686;28;20195;-85
2023/06/15 06:35:26;;;;;;;2.25;0.60;;;18.20;90.70;;;;;;5073183;28;20219;-86
2023/06/15 06:37:56;;;;;;;1.52;0.70;;;18.20;90.50;;;;;;5072721;28;20220;-86
2023/06/15 06:40:29;;;;;;;3.15;0.70;;;18.10;90.70;;;;;;5071493;28;20226;-86
2023/06/15 06:43:03;;;;;;;1.95;0.90;;;18.10;91.20;;;;;;5061655;28;20199;-86
2023/06/15 06:45:37;;;;;;;1.27;0.85;;;18.10;91.60;;;;;;5062847;28;20207;-85
2023/06/15 06:48:08;;;;;;;1.30;0.70;;;18.00;91.50;;;;;;5080026;28;20631;-84
2023/06/15 06:50:38;;;;;;;2.17;0.88;;;17.90;92.10;;;;;;5080766;28;20200;-85
2023/06/15 06:53:09;;;;;;;1.48;1.00;;;17.80;92.00;;;;;;5090802;28;20200;-85
2023/06/15 06:55:42;;;;;;;2.58;0.90;;;17.70;92.20;;;;;;5088461;28;20211;-84
2023/06/15 06:58:13;;;;;;;2.35;0.93;;;17.60;92.70;;;;;;5076783;28;20257;-84
2023/06/15 07:00:49;;;;;;;2.95;0.75;;;17.60;92.60;;;;;;5072454;28;20546;-84
2023/06/15 07:03:20;;;;;;;1.63;1.10;;;17.40;92.60;;;;;;5071252;28;20256;-85
2023/06/15 07:05:51;;;;;;;6.10;0.65;;;17.40;93.00;;;;;;5071508;28;20624;-86
2023/06/15 07:08:22;;;;;;;1.45;0.85;;;17.40;93.10;;;;;;5072975;28;20208;-87
2023/06/15 07:10:55;;;;;;;3.30;0.90;;;17.40;93.10;;;;;;5073265;28;20195;-85
2023/06/15 07:13:25;;;;;;;3.17;1.20;;;17.40;92.90;;;;;;5071753;28;20184;-87
2023/06/15 07:15:58;;;;;;;1.70;0.80;;;17.30;93.40;;;;;;5072758;28;20616;-87
2023/06/15 07:21:14;;;;;;;2.58;0.88;;;17.20;93.80;;;;;;5072387;28;20199;-87
2023/06/15 07:23:45;;;;;;;2.03;1.20;;;17.20;94.00;;;;;;5075375;28;20251;-87
2023/06/15 07:26:17;;;;;;;2.85;1.52;;;17.20;93.70;;;;;;5069127;28;20214;-87
2023/06/15 07:28:47;;;;;;;5.18;2.45;;;17.00;93.80;;;;;;5068996;28;20701;-85
2023/06/15 07:31:20;;;;;;;10.32;3.72;;;17.00;94.00;;;;;;5053483;28;20200;-86
2023/06/15 07:33:53;;;;;;;4.15;2.15;;;17.00;94.20;;;;;;5052441;28;20194;-85
2023/06/15 07:36:27;;;;;;;3.75;1.90;;;16.90;94.50;;;;;;5052184;28;20258;-87
2023/06/15 07:39:00;;;;;;;5.30;1.92;;;16.90;94.60;;;;;;5057385;28;20223;-86
2023/06/15 07:41:33;;;;;;;5.45;1.52;;;16.90;94.70;;;;;;5071914;28;20704;-87
2023/06/15 07:44:04;;;;;;;2.80;1.27;;;16.90;94.60;;;;;;5072137;28;20196;-87
2023/06/15 07:46:36;;;;;;;2.20;1.20;;;16.70;94.90;;;;;;5072308;28;20567;-87
2023/06/15 07:49:08;;;;;;;2.30;1.13;;;16.70;95.10;;;;;;5072749;28;20200;-86
2023/06/15 07:51:40;;;;;;;2.65;1.10;;;16.60;95.30;;;;;;5063620;28;20209;-87
2023/06/15 07:54:12;;;;;;;12.57;4.68;;;16.70;95.40;;;;;;5057610;28;20193;-86
2023/06/15 07:56:44;;;;;;;1.98;1.30;;;16.60;95.40;;;;;;5056932;28;20246;-87
2023/06/15 07:59:16;;;;;;;3.60;1.75;;;16.60;95.50;;;;;;5063803;28;20644;-88
2023/06/15 08:01:51;;;;;;;6.22;1.70;;;16.60;95.70;;;;;;5054121;28;20188;-87
2023/06/15 08:04:25;;;;;;;2.72;1.40;;;16.60;96.00;;;;;;5071885;28;20261;-87
2023/06/15 08:06:56;;;;;;;4.30;2.40;;;16.50;96.20;;;;;;5072614;28;20625;-86
2023/06/15 08:09:27;;;;;;;3.10;1.50;;;16.40;96.60;;;;;;5073869;28;20192;-86
2023/06/15 08:11:58;;;;;;;3.20;1.70;;;16.50;96.60;;;;;;5073625;28;20215;-86
2023/06/15 08:14:30;;;;;;;2.42;1.55;;;16.40;96.60;;;;;;5073948;28;20216;-87
2023/06/15 08:17:03;;;;;;;1.88;1.10;;;16.40;97.00;;;;;;5072823;28;20232;-88
2023/06/15 08:19:33;;;;;;;1.58;0.95;;;16.40;97.00;;;;;;5076066;28;20284;-87
2023/06/15 08:22:04;;;;;;;7.72;2.47;;;16.40;97.10;;;;;;5075951;28;20215;-87
2023/06/15 08:24:38;;;;;;;2.50;1.30;;;16.30;97.70;;;;;;5074268;28;20200;-86
2023/06/15 08:27:10;;;;;;;5.93;2.67;;;16.20;97.80;;;;;;5055028;28;20204;-86
2023/06/15 08:29:48;;;;;;;2.85;1.30;;;16.20;97.80;;;;;;5054861;28;20262;-86
2023/06/15 08:32:23;;;;;;;4.07;1.50;;;16.20;97.80;;;;;;5065233;28;20291;-86
2023/06/15 08:34:53;;;;;;;2.65;1.30;;;16.20;98.50;;;;;;5061062;28;20246;-86
2023/06/15 08:37:24;;;;;;;3.40;1.63;;;16.20;98.00;;;;;;5059114;28;20220;-86
2023/06/15 08:39:56;;;;;;;2.90;1.30;;;16.10;98.50;;;;;;5057686;28;20217;-87
2023/06/15 08:42:31;;;;;;;3.22;1.40;;;16.10;99.00;;;;;;5067759;28;20193;-87
2023/06/15 08:45:06;;;;;;;3.05;1.50;;;16.20;99.30;;;;;;5060818;28;20195;-87
2023/06/15 08:47:41;;;;;;;2.83;1.33;;;16.20;99.30;;;;;;5058750;28;20203;-86
2023/06/15 08:50:14;;;;;;;2.92;1.75;;;16.10;99.80;;;;;;5076389;28;20230;-86
2023/06/15 08:52:47;;;;;;;3.13;1.50;;;16.20;99.90;;;;;;5072635;28;20246;-87
2023/06/15 08:55:21;;;;;;;3.17;1.65;;;16.10;99.90;;;;;;5059165;28;20614;-87
2023/06/15 08:57:52;;;;;;;4.38;2.33;;;16.20;99.90;;;;;;5068000;28;20223;-87
2023/06/15 09:00:30;;;;;;;2.97;1.67;;;16.10;99.90;;;;;;5062908;28;20254;-86
2023/06/15 09:03:11;;;;;;;4.55;2.03;;;16.10;99.90;;;;;;5083014;28;20191;-87
2023/06/15 09:05:45;;;;;;;3.17;1.80;;;16.10;99.90;;;;;;5075586;28;20200;-87
2023/06/15 09:08:17;;;;;;;1.20;1.10;;;16.00;99.90;;;;;;5059321;28;20208;-87
2023/06/15 09:10:48;;;;;;;2.90;1.50;;;16.00;99.90;;;;;;5081310;28;20655;-87
2023/06/15 09:16:05;;;;;;;3.85;1.58;;;15.90;99.90;;;;;;5090958;28;20210;-87
2023/06/15 09:18:51;;;;;;;1.75;1.30;;;15.80;99.90;;;;;;5089449;28;20227;-88
2023/06/15 09:21:23;;;;;;;3.35;1.70;;;15.80;99.90;;;;;;5077857;28;20200;-89
2023/06/15 09:24:00;;;;;;;3.58;1.63;;;15.80;99.90;;;;;;5076343;28;20720;-87
2023/06/15 09:26:32;;;;;;;5.40;3.45;;;15.80;99.90;;;;;;5077864;28;20203;-87
2023/06/15 09:29:05;;;;;;;4.15;1.70;;;15.80;99.90;;;;;;5076634;28;20232;-87
2023/06/15 09:31:43;;;;;;;2.60;1.45;;;15.90;99.90;;;;;;5077529;28;20192;-87
2023/06/15 09:34:16;;;;;;;4.57;2.40;;;15.80;99.90;;;;;;5059649;28;20249;-87
2023/06/15 09:36:51;;;;;;;2.80;1.73;;;15.80;99.90;;;;;;5074254;28;20602;-87
2023/06/15 09:39:26;;;;;;;1.90;1.60;;;15.80;99.90;;;;;;5075200;28;20218;-87
2023/06/15 09:42:03;;;;;;;2.95;1.20;;;15.80;99.90;;;;;;5077157;28;20225;-88
2023/06/15 09:44:34;;;;;;;2.58;1.50;;;15.70;99.90;;;;;;5075569;28;20245;-87
2023/06/15 09:47:17;;;;;;;2.80;1.63;;;15.70;99.90;;;;;;5079046;28;20282;-87
2023/06/15 09:49:52;;;;;;;3.58;2.10;;;15.70;99.90;;;;;;5075701;28;20690;-87
2023/06/15 09:52:22;;;;;;;4.88;2.45;;;15.60;99.90;;;;;;5072658;28;20634;-86
2023/06/15 09:54:55;;;;;;;4.07;2.50;;;15.60;99.90;;;;;;5059870;28;20200;-88
2023/06/15 09:57:27;;;;;;;2.30;1.70;;;15.60;99.90;;;;;;5074681;28;20215;-88
2023/06/15 09:59:59;;;;;;;4.10;1.90;;;15.60;99.90;;;;;;5070961;28;20232;-87
2023/06/15 10:02:38;;;;;;;3.58;2.15;;;15.60;99.90;;;;;;5065640;28;20196;-89
2023/06/15 10:05:18;;;;;;;2.50;1.90;;;15.60;99.90;;;;;;5078751;28;20211;-86
2023/06/15 10:07:54;;;;;;;3.97;1.70;;;15.50;99.90;;;;;;5063383;28;20602;-86
2023/06/15 10:10:26;;;;;;;2.92;1.65;;;15.50;99.90;;;;;;5042376;28;20575;-86
2023/06/15 10:13:00;;;;;;;3.05;1.75;;;15.40;99.90;;;;;;5077248;28;20192;-86
2023/06/15 10:15:33;;;;;;;3.70;1.80;;;15.40;99.90;;;;;;5079129;28;20212;-86
2023/06/15 10:18:10;;;;;;;3.30;1.73;;;15.40;99.90;;;;;;5060696;28;20713;-87
2023/06/15 10:20:48;;;;;;;3.03;1.95;;;15.30;99.90;;;;;;5079090;28;20183;-87
2023/06/15 10:23:26;;;;;;;3.78;2.10;;;15.30;99.90;;;;;;5046424;28;20196;-86
2023/06/15 10:26:02;;;;;;;3.22;2.00;;;15.20;99.90;;;;;;5074711;28;20829;-87
2023/06/15 10:28:40;;;;;;;4.15;1.90;;;15.20;99.90;;;;;;5067856;28;20192;-87
2023/06/15 10:31:30;;;;;;;3.80;1.80;;;15.20;99.90;;;;;;5080866;28;20224;-86
2023/06/15 10:34:07;;;;;;;2.90;1.80;;;15.20;99.90;;;;;;5074894;28;20196;-88
2023/06/15 10:36:46;;;;;;;5.35;2.17;;;15.20;99.90;;;;;;5083491;28;20630;-87
2023/06/15 10:39:25;;;;;;;3.72;1.80;;;15.20;99.90;;;;;;5058251;28;20236;-87
2023/06/15 10:42:18;;;;;;;3.63;1.77;;;15.20;99.90;;;;;;5066618;28;20200;-87
2023/06/15 10:45:01;;;;;;;3.10;1.98;;;15.20;99.90;;;;;;5081699;28;20271;-87
2023/06/15 10:47:33;;;;;;;2.65;1.90;;;15.20;99.90;;;;;;5092398;28;20207;-88
2023/06/15 10:50:19;;;;;;;4.32;2.70;;;15.20;99.90;;;;;;5081239;28;20192;-87
2023/06/15 10:52:56;;;;;;;3.88;2.55;;;15.10;99.90;;;;;;5097028;28;20226;-84
2023/06/15 10:55:38;;;;;;;4.20;1.95;;;15.00;99.90;;;;;;5086965;28;20183;-87
2023/06/15 10:58:20;;;;;;;2.65;1.73;;;15.10;99.90;;;;;;5078271;28;20220;-87
2023/06/15 11:01:13;;;;;;;4.47;1.92;;;15.10;99.90;;;;;;5080138;28;20184;-88
2023/06/15 11:03:47;;;;;;;3.83;1.70;;;15.00;99.90;;;;;;5067853;28;20188;-88
2023/06/15 11:06:35;;;;;;;3.95;1.88;;;15.00;99.90;;;;;;5082545;28;20662;-88
2023/06/15 11:09:20;;;;;;;2.78;1.40;;;15.00;99.90;;;;;;5086395;28;20196;-88
2023/06/15 11:11:56;;;;;;;2.53;1.48;;;15.00;99.90;;;;;;5075708;28;20200;-87
2023/06/15 11:14:34;;;;;;;2.63;1.67;;;15.00;99.90;;;;;;5069789;28;20196;-87
2023/06/15 11:17:08;;;;;;;5.13;1.30;;;15.00;99.90;;;;;;5077892;28;20203;-87
2023/06/15 11:19:50;;;;;;;2.95;1.02;;;15.00;99.90;;;;;;5093850;28;20196;-87
2023/06/15 11:22:27;;;;;;;2.22;1.20;;;14.90;99.90;;;;;;5084847;28;20251;-86
2023/06/15 11:25:06;;;;;;;3.60;1.40;;;14.90;99.90;;;;;;5080840;28;20275;-87
2023/06/15 11:27:46;;;;;;;1.48;1.05;;;15.00;99.90;;;;;;5074610;28;20201;-86
2023/06/15 11:30:31;;;;;;;4.68;1.73;;;15.00;99.90;;;;;;5072333;28;20218;-86
2023/06/15 11:33:36;;;;;;;3.28;1.30;;;14.90;99.90;;;;;;5082663;28;20176;-86
2023/06/15 11:36:14;;;;;;;1.85;1.17;;;15.00;99.90;;;;;;5093249;28;20204;-87
2023/06/15 11:38:51;;;;;;;3.10;0.93;;;14.90;99.90;;;;;;5092447;28;20279;-83
2023/06/15 11:44:45;;;;;;;3.95;1.13;;;14.90;99.90;;;;;;5094177;28;20192;-85
2023/06/15 11:55:55;;;;;;;1.77;1.13;;;14.90;99.90;;;;;;5091560;28;20223;-84
2023/06/15 12:04:50;;;;;;;2.80;1.40;;;14.80;99.90;;;;;;5090249;28;20196;-83
2023/06/15 12:07:21;;;;;;;1.60;0.90;;;14.70;99.90;;;;;;5093810;28;20196;-83
2023/06/15 12:16:00;;;;;;;1.73;1.00;;;14.70;99.90;;;;;;5111268;28;20195;-84
2023/06/15 12:21:46;;;;;;;3.08;1.15;;;14.70;99.90;;;;;;5115544;28;20192;-84
2023/06/15 12:24:43;;;;;;;2.47;1.13;;;14.60;99.90;;;;;;5115078;28;20601;-88
2023/06/15 12:30:55;;;;;;;3.00;1.38;;;14.60;99.90;;;;;;5117181;28;20246;-85
2023/06/15 12:33:42;;;;;;;8.25;1.23;;;14.60;99.90;;;;;;5114176;28;20262;-83
2023/06/15 12:36:38;;;;;;;2.65;1.20;;;14.50;99.90;;;;;;5112344;28;20291;-87
2023/06/15 12:39:21;;;;;;;2.67;1.20;;;14.40;99.90;;;;;;5112088;28;20222;-86
2023/06/15 12:42:07;;;;;;;3.15;1.20;;;14.40;99.90;;;;;;5111336;28;20195;-83
2023/06/15 12:44:45;;;;;;;3.33;1.30;;;14.50;99.90;;;;;;5111064;28;20203;-83
2023/06/15 12:47:18;;;;;;;3.03;1.42;;;14.50;99.90;;;;;;5111126;28;20271;-85
2023/06/15 12:49:49;;;;;;;6.60;1.23;;;14.50;99.90;;;;;;5106387;28;20274;-83
2023/06/15 12:52:23;;;;;;;5.10;1.35;;;14.50;99.90;;;;;;5106817;28;20626;-84
2023/06/15 12:55:00;;;;;;;2.80;1.30;;;14.40;99.90;;;;;;5106997;28;20195;-84
2023/06/15 12:57:38;;;;;;;3.55;1.40;;;14.30;99.90;;;;;;5107910;28;20262;-86
2023/06/15 13:00:11;;;;;;;2.65;1.20;;;14.30;99.90;;;;;;5101835;28;20271;-85
2023/06/15 13:02:44;;;;;;;2.88;1.48;;;14.30;99.90;;;;;;5104454;28;20195;-84
2023/06/15 13:07:59;;;;;;;2.58;1.30;;;14.30;99.90;;;;;;5109241;28;20195;-85
2023/06/15 13:10:48;;;;;;;2.33;1.30;;;14.30;99.90;;;;;;5107907;28;20211;-85
2023/06/15 13:13:19;;;;;;;3.03;1.35;;;14.20;99.90;;;;;;5111008;28;20203;-86
2023/06/15 13:15:54;;;;;;;3.00;1.52;;;14.10;99.90;;;;;;5114185;28;20248;-88
2023/06/15 13:18:26;;;;;;;3.35;1.48;;;14.10;99.90;;;;;;5109463;28;20244;-85
2023/06/15 13:21:02;;;;;;;3.47;1.38;;;14.00;99.90;;;;;;5091311;28;20195;-86
2023/06/15 13:23:42;;;;;;;3.75;1.73;;;14.00;99.90;;;;;;5112941;28;20229;-85
2023/06/15 13:29:11;;;;;;;2.97;1.50;;;13.90;99.90;;;;;;5113328;28;20199;-84
2023/06/15 13:31:58;;;;;;;4.55;2.03;;;13.80;99.90;;;;;;5114457;28;20194;-87
2023/06/15 13:34:35;;;;;;;3.75;1.77;;;13.60;99.90;;;;;;5096158;28;20196;-84
2023/06/15 13:37:17;;;;;;;4.03;1.85;;;13.60;99.90;;;;;;5086938;28;20681;-83
2023/06/15 13:39:50;;;;;;;4.93;1.80;;;13.60;99.90;;;;;;5089328;28;20208;-85
2023/06/15 13:42:28;;;;;;;3.70;1.77;;;13.50;99.90;;;;;;5085235;28;20222;-84
2023/06/15 13:45:00;;;;;;;5.88;2.13;;;13.50;99.90;;;;;;5096153;28;20213;-85
2023/06/15 13:47:32;;;;;;;3.58;2.03;;;13.50;99.90;;;;;;5101999;28;20498;-85
2023/06/15 13:50:03;;;;;;;3.28;1.98;;;13.50;99.90;;;;;;5085574;28;20263;-85
2023/06/15 13:52:36;;;;;;;3.85;1.70;;;13.50;99.90;;;;;;5074242;28;20208;-86
2023/06/15 13:55:13;;;;;;;3.35;1.70;;;13.50;99.90;;;;;;5076946;28;20294;-87
2023/06/15 13:57:46;;;;;;;3.40;1.67;;;13.40;99.90;;;;;;5075554;28;20231;-86
2023/06/15 14:00:25;;;;;;;6.07;1.75;;;13.40;99.90;;;;;;5060960;28;20616;-86
2023/06/15 14:03:03;;;;;;;3.53;1.70;;;13.40;99.90;;;;;;5094606;28;20274;-87